createdAt,value
2023-03-17T00:03:57.467Z,95126.00
2023-03-17T00:07:57.549Z,95116.00
2023-03-17T00:11:58.387Z,95120.00
2023-03-17T00:15:57.855Z,95116.00
2023-03-17T00:19:58.016Z,95106.00
2023-03-17T00:23:58.104Z,95108.00
2023-03-17T00:27:58.296Z,95106.00
2023-03-17T00:31:58.445Z,95102.00
2023-03-17T00:35:58.609Z,95096.00
2023-03-17T00:39:58.725Z,95093.00
2023-03-17T00:43:58.824Z,95089.00
2023-03-17T00:47:59.028Z,95079.00
2023-03-17T00:51:59.167Z,95073.00
2023-03-17T00:55:59.337Z,95071.00
2023-03-17T00:59:59.523Z,95067.00
2023-03-17T01:03:59.686Z,95073.00
2023-03-17T01:07:59.838Z,95067.00
2023-03-17T01:12:00.035Z,95065.00
2023-03-17T01:16:00.305Z,95077.00
2023-03-17T01:20:00.338Z,95067.00
2023-03-17T01:24:00.546Z,95073.00
2023-03-17T01:28:00.645Z,95073.00
2023-03-17T01:32:00.855Z,95073.00
2023-03-17T01:36:00.991Z,95069.00
2023-03-17T01:40:01.122Z,95075.00
2023-03-17T01:44:01.292Z,95063.00
2023-03-17T01:48:01.441Z,95067.00
2023-03-17T01:52:01.583Z,95069.00
2023-03-17T01:56:01.735Z,95057.00
2023-03-17T02:00:01.883Z,95055.00
2023-03-17T02:04:02.064Z,95046.00
2023-03-17T02:08:02.208Z,95046.00
2023-03-17T02:12:02.342Z,95038.00
2023-03-17T02:16:02.524Z,95038.00
2023-03-17T02:20:02.646Z,95036.00
2023-03-17T02:24:02.838Z,95040.00
2023-03-17T02:28:02.977Z,95036.00
2023-03-17T02:32:03.169Z,95044.00
2023-03-17T02:36:03.375Z,95030.00
2023-03-17T02:40:03.548Z,95034.00
2023-03-17T02:44:03.615Z,95026.00
2023-03-17T02:48:03.796Z,95032.00
2023-03-17T02:52:03.964Z,95002.00
2023-03-17T02:56:04.150Z,95026.00
2023-03-17T03:00:04.258Z,95026.00
2023-03-17T03:04:04.472Z,95030.00
2023-03-17T03:08:04.610Z,95018.00
2023-03-17T03:12:04.757Z,95002.00
2023-03-17T03:16:05.031Z,95028.00
2023-03-17T03:20:05.138Z,95010.00
2023-03-17T03:24:05.320Z,95022.00
2023-03-17T03:28:05.559Z,95026.00
2023-03-17T03:32:05.715Z,95028.00
2023-03-17T03:36:05.957Z,95030.00
2023-03-17T03:40:06.116Z,95016.00
2023-03-17T03:44:06.306Z,95026.00
2023-03-17T03:48:06.500Z,95042.00
2023-03-17T03:52:06.700Z,95026.00
2023-03-17T03:56:06.993Z,95016.00
2023-03-17T04:00:07.131Z,95026.00
2023-03-17T04:04:07.352Z,95016.00
2023-03-17T04:08:07.515Z,95016.00
2023-03-17T04:12:07.754Z,95032.00
2023-03-17T04:16:08.023Z,95018.00
2023-03-17T04:20:08.144Z,95001.00
2023-03-17T04:24:08.328Z,95012.00
2023-03-17T04:28:08.507Z,95018.00
2023-03-17T04:32:08.735Z,95008.00
2023-03-17T04:36:08.983Z,94993.00
2023-03-17T04:40:09.156Z,95010.00
2023-03-17T04:44:09.369Z,94981.00
2023-03-17T04:48:09.586Z,94995.00
2023-03-17T04:52:09.785Z,94981.00
2023-03-17T04:56:09.764Z,94987.00
2023-03-17T05:00:09.756Z,94991.00
2023-03-17T05:04:11.145Z,94981.00
2023-03-17T05:08:09.655Z,94983.00
2023-03-17T05:12:09.670Z,94987.00
2023-03-17T05:16:09.720Z,94995.00
2023-03-17T05:20:09.549Z,95004.00
2023-03-17T05:24:09.523Z,94999.00
2023-03-17T05:28:09.477Z,94995.00
2023-03-17T05:32:09.426Z,94995.00
2023-03-17T05:36:09.453Z,94989.00
2023-03-17T05:40:09.355Z,94997.00
2023-03-17T05:44:09.286Z,94991.00
2023-03-17T05:48:09.462Z,94995.00
2023-03-17T05:52:09.703Z,94993.00
2023-03-17T05:56:09.870Z,95001.00
2023-03-17T06:00:12.433Z,94985.00
2023-03-17T06:04:10.079Z,94991.00
2023-03-17T06:08:10.031Z,94985.00
2023-03-17T06:12:10.034Z,94999.00
2023-03-17T06:16:09.989Z,94997.00
2023-03-17T06:20:09.954Z,94991.00
2023-03-17T06:24:09.929Z,94989.00
2023-03-17T06:28:09.858Z,94997.00
2023-03-17T06:32:20.269Z,94995.00
2023-03-17T06:36:10.823Z,94997.00
2023-03-17T06:40:10.018Z,94999.00
2023-03-17T06:44:10.012Z,94995.00
2023-03-17T06:48:10.033Z,94993.00
2023-03-17T06:52:10.017Z,94985.00
2023-03-17T06:56:23.536Z,94987.00
2023-03-17T07:00:11.536Z,94989.00
2023-03-17T07:04:10.099Z,94987.00
2023-03-17T07:08:10.080Z,94983.00
2023-03-17T07:12:09.949Z,94989.00
2023-03-17T07:16:10.127Z,94981.00
2023-03-17T07:20:10.316Z,94989.00
2023-03-17T07:24:10.309Z,94985.00
2023-03-17T07:28:10.563Z,94969.00
2023-03-17T07:32:10.505Z,94991.00
2023-03-17T07:36:10.691Z,94985.00
2023-03-17T07:40:11.568Z,94985.00
2023-03-17T07:44:11.047Z,94983.00
2023-03-17T07:48:10.944Z,94983.00
2023-03-17T07:52:11.146Z,94971.00
2023-03-17T07:56:11.114Z,94961.00
2023-03-17T08:00:11.134Z,94963.00
2023-03-17T08:04:11.194Z,94961.00
2023-03-17T08:08:11.221Z,94954.00
2023-03-17T08:12:11.275Z,94961.00
2023-03-17T08:16:11.557Z,94955.00
2023-03-17T08:20:11.372Z,94950.00
2023-03-17T08:24:11.375Z,94944.00
2023-03-17T08:28:11.417Z,94932.00
2023-03-17T08:32:11.454Z,94924.00
2023-03-17T08:36:11.438Z,94938.00
2023-03-17T08:40:11.402Z,94930.00
2023-03-17T08:44:11.554Z,94910.00
2023-03-17T08:48:11.573Z,94912.00
2023-03-17T08:52:11.574Z,94902.00
2023-03-17T08:56:11.563Z,94906.00
2023-03-17T09:00:11.274Z,94900.00
2023-03-17T09:04:11.281Z,94900.00
2023-03-17T09:08:11.650Z,94883.00
2023-03-17T09:12:11.279Z,94875.00
2023-03-17T09:16:11.409Z,94859.00
2023-03-17T09:20:11.188Z,94855.00
2023-03-17T09:24:11.189Z,94840.00
2023-03-17T09:28:11.586Z,94834.00
2023-03-17T09:32:11.154Z,94832.00
2023-03-17T09:36:11.246Z,94828.00
2023-03-17T09:40:11.581Z,94828.00
2023-03-17T09:44:11.591Z,94832.00
2023-03-17T09:48:11.583Z,94830.00
2023-03-17T09:52:11.240Z,94826.00
2023-03-17T09:56:11.603Z,94820.00
2023-03-17T10:00:11.346Z,94810.00
2023-03-17T10:04:11.566Z,94810.00
2023-03-17T10:08:28.870Z,94793.00
2023-03-17T10:12:12.464Z,94787.00
2023-03-17T10:16:11.446Z,94781.00
2023-03-17T10:20:11.385Z,94787.00
2023-03-17T10:24:11.598Z,94763.00
2023-03-17T10:28:11.554Z,94761.00
2023-03-17T10:32:11.749Z,94763.00
2023-03-17T10:36:12.146Z,94750.00
2023-03-17T10:40:12.091Z,94744.00
2023-03-17T10:44:11.816Z,94742.00
2023-03-17T10:48:12.100Z,94732.00
2023-03-17T10:52:12.107Z,94728.00
2023-03-17T10:56:11.747Z,94720.00
2023-03-17T11:00:11.714Z,94703.00
2023-03-17T11:04:11.688Z,94701.00
2023-03-17T11:08:12.112Z,94708.00
2023-03-17T11:12:11.582Z,94699.00
2023-03-17T11:16:12.162Z,94691.00
2023-03-17T11:20:11.932Z,94683.00
2023-03-17T11:24:12.089Z,94665.00
2023-03-17T11:28:12.252Z,94665.00
2023-03-17T11:32:12.432Z,94659.00
2023-03-17T11:36:12.665Z,94654.00
2023-03-17T11:40:13.110Z,94628.00
2023-03-17T11:44:13.122Z,94640.00
2023-03-17T11:48:13.131Z,94624.00
2023-03-17T11:52:12.754Z,94613.00
2023-03-17T11:56:12.736Z,94603.00
2023-03-17T12:00:12.657Z,94597.00
2023-03-17T12:04:13.184Z,94609.00
2023-03-17T12:08:12.595Z,94601.00
2023-03-17T12:12:13.820Z,94587.00
2023-03-17T12:16:12.706Z,94581.00
2023-03-17T12:20:12.514Z,94583.00
2023-03-17T12:24:12.652Z,94573.00
2023-03-17T12:28:12.450Z,94571.00
2023-03-17T12:32:12.634Z,94566.00
2023-03-17T12:36:12.619Z,94552.00
2023-03-17T12:40:12.293Z,94554.00
2023-03-17T12:44:12.278Z,94548.00
2023-03-17T12:48:12.241Z,94540.00
2023-03-17T12:52:12.204Z,94530.00
2023-03-17T12:56:12.151Z,94534.00
2023-03-17T13:00:12.274Z,94538.00
2023-03-17T13:04:12.062Z,94524.00
2023-03-17T13:08:12.191Z,94507.00
2023-03-17T13:12:11.997Z,94503.00
2023-03-17T13:16:11.996Z,94507.00
2023-03-17T13:20:12.043Z,94501.00
2023-03-17T13:24:11.914Z,94491.00
2023-03-17T13:28:11.964Z,94489.00
2023-03-17T13:32:11.916Z,94485.00
2023-03-17T13:36:11.906Z,94487.00
2023-03-17T13:40:11.868Z,94483.00
2023-03-17T13:44:11.832Z,94479.00
2023-03-17T13:48:11.768Z,94471.00
2023-03-17T13:52:11.710Z,94464.00
2023-03-17T13:56:11.708Z,94458.00
2023-03-17T14:00:11.633Z,94450.00
2023-03-17T14:04:11.702Z,94454.00
2023-03-17T14:08:11.663Z,94446.00
2023-03-17T14:12:11.869Z,94450.00
2023-03-17T14:16:11.875Z,94444.00
2023-03-17T14:20:11.810Z,94444.00
2023-03-17T14:24:11.773Z,94436.00
2023-03-17T14:28:11.788Z,94434.00
2023-03-17T14:32:11.670Z,94434.00
2023-03-17T14:36:14.019Z,94430.00
2023-03-17T14:40:11.610Z,94432.00
2023-03-17T14:44:11.551Z,94424.00
2023-03-17T14:48:11.544Z,94424.00
2023-03-17T14:52:11.525Z,94418.00
2023-03-17T14:56:11.478Z,94411.00
2023-03-17T15:00:11.444Z,94420.00
2023-03-17T15:04:11.410Z,94409.00
2023-03-17T15:08:11.363Z,94407.00
2023-03-17T15:12:11.296Z,94409.00
2023-03-17T15:16:11.397Z,94415.00
2023-03-17T15:20:11.592Z,94407.00
2023-03-17T15:24:11.716Z,94409.00
2023-03-17T15:28:11.763Z,94405.00
2023-03-17T15:32:11.869Z,94405.00
2023-03-17T15:36:16.584Z,94403.00
2023-03-17T15:40:12.975Z,94405.00
2023-03-17T15:44:11.949Z,94409.00
2023-03-17T15:48:12.098Z,94397.00
2023-03-17T15:52:12.295Z,94405.00
2023-03-17T15:56:12.530Z,94401.00
2023-03-17T16:00:12.470Z,94399.00
2023-03-17T16:04:12.438Z,94399.00
2023-03-17T16:08:12.380Z,94409.00
2023-03-17T16:12:12.365Z,94405.00
2023-03-17T16:16:12.348Z,94401.00
2023-03-17T16:20:12.276Z,94403.00
2023-03-17T16:24:12.234Z,94405.00
2023-03-17T16:28:12.257Z,94407.00
2023-03-17T16:32:12.194Z,94409.00
2023-03-17T16:36:12.204Z,94405.00
2023-03-17T16:40:14.268Z,94428.00
2023-03-17T16:44:12.336Z,94430.00
2023-03-17T16:48:12.175Z,94448.00
2023-03-17T16:52:12.127Z,94444.00
2023-03-17T16:56:12.132Z,94452.00
2023-03-17T17:00:12.034Z,94464.00
2023-03-17T17:04:12.008Z,94467.00
2023-03-17T17:08:11.970Z,94475.00
2023-03-17T17:12:11.924Z,94481.00
2023-03-17T17:16:11.995Z,94475.00
2023-03-17T17:20:11.869Z,94475.00
2023-03-17T17:24:11.887Z,94469.00
2023-03-17T17:28:11.973Z,94483.00
2023-03-17T17:32:12.142Z,94479.00
2023-03-17T17:36:12.405Z,94475.00
2023-03-17T17:40:12.481Z,94479.00
2023-03-17T17:44:12.652Z,94479.00
2023-03-17T17:48:12.879Z,94489.00
2023-03-17T17:52:13.013Z,94497.00
2023-03-17T17:56:13.229Z,94487.00
2023-03-17T18:00:13.390Z,94495.00
2023-03-17T18:04:13.642Z,94481.00
2023-03-17T18:08:13.693Z,94485.00
2023-03-17T18:12:13.793Z,94481.00
2023-03-17T18:16:13.923Z,94483.00
2023-03-17T18:20:13.977Z,94487.00
2023-03-17T18:24:14.129Z,94473.00
2023-03-17T18:28:14.311Z,94485.00
2023-03-17T18:32:14.403Z,94495.00
2023-03-17T18:36:14.397Z,94499.00
2023-03-17T18:40:18.152Z,94518.00
2023-03-17T18:44:14.315Z,94520.00
2023-03-17T18:48:14.248Z,94514.00
2023-03-17T18:52:14.199Z,94530.00
2023-03-17T18:56:14.371Z,94526.00
2023-03-17T19:00:14.314Z,94526.00
2023-03-17T19:04:14.286Z,94528.00
2023-03-17T19:08:14.233Z,94522.00
2023-03-17T19:12:14.208Z,94522.00
2023-03-17T19:16:14.213Z,94526.00
2023-03-17T19:20:14.093Z,94526.00
2023-03-17T19:24:14.083Z,94534.00
2023-03-17T19:28:14.041Z,94542.00
2023-03-17T19:32:14.009Z,94534.00
2023-03-17T19:36:14.013Z,94550.00
2023-03-17T19:40:13.965Z,94522.00
2023-03-17T19:44:13.883Z,94536.00
2023-03-17T19:48:13.860Z,94532.00
2023-03-17T19:52:13.911Z,94536.00
2023-03-17T19:56:14.048Z,94546.00
2023-03-17T20:00:14.119Z,94552.00
2023-03-17T20:04:14.135Z,94546.00
2023-03-17T20:08:14.192Z,94542.00
2023-03-17T20:12:14.213Z,94542.00
2023-03-17T20:16:14.176Z,94556.00
2023-03-17T20:20:14.161Z,94548.00
2023-03-17T20:24:14.170Z,94552.00
2023-03-17T20:28:14.220Z,94544.00
2023-03-17T20:32:14.252Z,94562.00
2023-03-17T20:36:14.373Z,94560.00
2023-03-17T20:40:14.363Z,94548.00
2023-03-17T20:44:14.360Z,94558.00
2023-03-17T20:48:14.294Z,94556.00
2023-03-17T20:52:14.344Z,94556.00
2023-03-17T20:56:14.361Z,94554.00
2023-03-17T21:00:14.315Z,94552.00
2023-03-17T21:04:14.412Z,94562.00
2023-03-17T21:08:14.420Z,94560.00
2023-03-17T21:12:14.421Z,94579.00
2023-03-17T21:16:14.433Z,94573.00
2023-03-17T21:20:14.360Z,94589.00
2023-03-17T21:24:14.341Z,94567.00
2023-03-17T21:28:14.353Z,94579.00
2023-03-17T21:32:14.280Z,94581.00
2023-03-17T21:36:14.304Z,94597.00
2023-03-17T21:40:14.263Z,94595.00
2023-03-17T21:44:14.219Z,94603.00
2023-03-17T21:48:14.198Z,94607.00
2023-03-17T21:52:14.210Z,94609.00
2023-03-17T21:56:14.180Z,94611.00
2023-03-17T22:00:14.195Z,94616.00
2023-03-17T22:04:14.234Z,94618.00
2023-03-17T22:08:14.209Z,94618.00
2023-03-17T22:12:14.183Z,94618.00
2023-03-17T22:16:14.132Z,94636.00
2023-03-17T22:20:14.128Z,94642.00
2023-03-17T22:24:14.120Z,94640.00
2023-03-17T22:28:14.081Z,94638.00
2023-03-17T22:32:14.101Z,94646.00
2023-03-17T22:36:14.089Z,94646.00
2023-03-17T22:40:14.024Z,94648.00
2023-03-17T22:44:14.070Z,94642.00
2023-03-17T22:48:14.043Z,94640.00
2023-03-17T22:52:13.997Z,94648.00
2023-03-17T22:56:13.973Z,94646.00
2023-03-17T23:00:14.013Z,94656.00
2023-03-17T23:04:14.146Z,94661.00
2023-03-17T23:08:14.150Z,94665.00
2023-03-17T23:12:14.151Z,94675.00
2023-03-17T23:16:14.150Z,94677.00
2023-03-17T23:20:14.117Z,94673.00
2023-03-17T23:24:14.120Z,94671.00
2023-03-17T23:28:14.091Z,94681.00
2023-03-17T23:32:14.090Z,94685.00
2023-03-17T23:36:14.114Z,94695.00
2023-03-17T23:40:14.021Z,94693.00
2023-03-17T23:44:14.064Z,94691.00
2023-03-17T23:48:14.049Z,94695.00
2023-03-17T23:52:13.965Z,94699.00
2023-03-17T23:56:13.980Z,94699.00
